createdAt,value
2019-04-28T00:01:11.399Z,11.60
2019-04-28T00:03:41.945Z,10.83
2019-04-28T00:06:11.398Z,14.80
2019-04-28T00:08:42.753Z,14.13
2019-04-28T00:11:12.014Z,12.20
2019-04-28T00:13:41.783Z,12.50
2019-04-28T00:16:11.675Z,14.50
2019-04-28T00:18:41.749Z,12.83
2019-04-28T00:21:26.870Z,10.77
2019-04-28T00:24:14.065Z,14.83
2019-04-28T00:26:53.642Z,12.97
2019-04-28T00:29:22.984Z,10.93
2019-04-28T00:31:52.281Z,13.63
2019-04-28T00:34:21.577Z,14.17
2019-04-28T00:37:08.749Z,10.50
2019-04-28T00:39:38.026Z,11.13
2019-04-28T00:42:07.304Z,11.87
2019-04-28T00:44:36.790Z,14.77
2019-04-28T00:47:06.047Z,15.13
2019-04-28T00:49:47.662Z,12.40
2019-04-28T00:52:22.187Z,14.90
2019-04-28T00:54:52.646Z,11.63
2019-04-28T00:57:22.153Z,10.90
2019-04-28T00:59:57.492Z,12.97
2019-04-28T01:02:41.282Z,7.43
2019-04-28T01:05:11.481Z,10.53
2019-04-28T01:07:41.317Z,11.33
2019-04-28T01:10:12.968Z,13.33
2019-04-28T01:12:42.244Z,8.00
2019-04-28T01:15:16.756Z,11.00
2019-04-28T01:18:04.967Z,15.90
2019-04-28T01:20:34.235Z,11.13
2019-04-28T01:23:03.483Z,15.50
2019-04-28T01:25:32.722Z,11.63
2019-04-28T01:28:02.302Z,10.33
2019-04-28T01:30:53.687Z,15.57
2019-04-28T01:33:41.132Z,10.17
2019-04-28T01:36:10.479Z,11.50
2019-04-28T01:38:40.289Z,10.83
2019-04-28T01:41:09.886Z,9.87
2019-04-28T01:43:39.303Z,11.70
2019-04-28T01:46:10.150Z,14.47
2019-04-28T01:48:39.899Z,10.30
2019-04-28T01:51:09.571Z,12.03
2019-04-28T01:53:39.563Z,10.83
2019-04-28T01:56:10.592Z,12.10
2019-04-28T01:58:40.446Z,16.70
2019-04-28T02:01:10.627Z,8.93
2019-04-28T02:03:40.414Z,9.73
2019-04-28T02:06:10.139Z,11.03
2019-04-28T02:08:39.878Z,9.43
2019-04-28T02:11:10.099Z,11.47
2019-04-28T02:13:39.914Z,14.43
2019-04-28T02:16:09.705Z,13.23
2019-04-28T02:18:39.915Z,12.83
2019-04-28T02:21:26.066Z,8.47
2019-04-28T02:24:14.291Z,11.67
2019-04-28T02:26:43.558Z,10.77
2019-04-28T02:29:12.781Z,9.83
2019-04-28T02:31:42.083Z,9.87
2019-04-28T02:34:11.353Z,11.00
2019-04-28T02:37:01.638Z,12.67
2019-04-28T02:39:31.534Z,10.10
2019-04-28T02:42:01.672Z,8.80
2019-04-28T02:44:34.681Z,13.03
2019-04-28T02:47:02.607Z,12.17
2019-04-28T02:49:40.345Z,13.03
2019-04-28T02:52:41.479Z,11.13
2019-04-28T02:55:11.432Z,15.13
2019-04-28T02:57:40.843Z,11.90
2019-04-28T03:00:10.532Z,12.53
2019-04-28T03:02:41.472Z,10.87
2019-04-28T03:05:11.742Z,11.60
2019-04-28T03:07:41.634Z,11.00
2019-04-28T03:10:11.355Z,10.80
2019-04-28T03:12:41.492Z,10.47
2019-04-28T03:15:11.381Z,10.70
2019-04-28T03:17:41.101Z,10.00
2019-04-28T03:20:11.103Z,9.47
2019-04-28T03:22:41.098Z,9.70
2019-04-28T03:25:16.071Z,10.30
2019-04-28T03:28:00.617Z,10.20
2019-04-28T03:30:54.433Z,14.33
2019-04-28T03:33:26.111Z,17.03
2019-04-28T03:35:55.905Z,10.10
2019-04-28T03:38:25.207Z,11.57
2019-04-28T03:40:54.466Z,11.57
2019-04-28T03:43:23.866Z,10.80
2019-04-28T03:46:00.747Z,10.17
2019-04-28T03:48:30.879Z,8.43
2019-04-28T03:51:00.770Z,13.93
2019-04-28T03:53:31.276Z,10.67
2019-04-28T03:56:01.684Z,9.67
2019-04-28T03:58:31.373Z,11.60
2019-04-28T04:01:03.252Z,10.57
2019-04-28T04:03:31.680Z,16.07
2019-04-28T04:06:01.046Z,11.67
2019-04-28T04:08:31.071Z,10.23
2019-04-28T04:11:07.028Z,9.07
2019-04-28T04:14:01.808Z,12.30
2019-04-28T04:16:50.233Z,8.40
2019-04-28T04:19:20.421Z,11.33
2019-04-28T04:22:10.171Z,12.40
2019-04-28T04:24:40.392Z,15.20
2019-04-28T04:27:10.662Z,8.10
2019-04-28T04:29:43.316Z,8.87
2019-04-28T04:32:19.246Z,11.73
2019-04-28T04:34:42.131Z,8.83
2019-04-28T04:37:12.598Z,10.53
2019-04-28T04:39:42.160Z,13.00
2019-04-28T04:42:11.420Z,10.33
2019-04-28T04:44:41.664Z,8.80
2019-04-28T04:47:11.039Z,10.73
2019-04-28T04:49:40.540Z,9.90
2019-04-28T04:52:10.502Z,9.57
2019-04-28T04:54:40.238Z,9.23
2019-04-28T04:57:11.068Z,10.80
2019-04-28T04:59:40.471Z,7.97
2019-04-28T05:02:36.667Z,8.33
2019-04-28T05:05:12.473Z,8.80
2019-04-28T05:07:41.996Z,13.63
2019-04-28T05:10:11.330Z,10.60
2019-04-28T05:12:40.604Z,10.38
2019-04-28T05:15:10.391Z,8.33
2019-04-28T05:17:40.248Z,11.20
2019-04-28T05:20:09.940Z,8.10
2019-04-28T05:22:45.625Z,7.50
2019-04-28T05:25:20.531Z,10.93
2019-04-28T05:27:50.066Z,10.53
2019-04-28T05:30:20.440Z,11.07
2019-04-28T05:32:56.136Z,6.43
2019-04-28T05:35:22.013Z,9.43
2019-04-28T05:37:51.844Z,10.93
2019-04-28T05:40:21.070Z,8.07
2019-04-28T05:43:00.773Z,9.87
2019-04-28T05:45:32.177Z,6.47
2019-04-28T05:48:01.942Z,6.93
2019-04-28T05:50:45.357Z,11.50
2019-04-28T05:53:23.646Z,9.47
2019-04-28T05:55:57.307Z,12.13
2019-04-28T05:58:51.583Z,9.40
2019-04-28T06:01:30.337Z,9.23
2019-04-28T06:04:00.784Z,7.67
2019-04-28T06:06:33.572Z,8.27
2019-04-28T06:09:10.169Z,9.03
2019-04-28T06:11:40.819Z,7.93
2019-04-28T06:14:10.190Z,9.97
2019-04-28T06:16:40.596Z,12.20
2019-04-28T06:19:10.372Z,7.13
2019-04-28T06:21:40.013Z,10.53
2019-04-28T06:24:09.298Z,9.47
2019-04-28T06:26:38.598Z,12.03
2019-04-28T06:29:07.840Z,9.83
2019-04-28T06:31:37.087Z,7.87
2019-04-28T06:34:06.319Z,9.97
2019-04-28T06:36:35.641Z,7.47
2019-04-28T06:39:08.158Z,7.17
2019-04-28T06:41:37.461Z,11.67
2019-04-28T06:44:06.826Z,9.30
2019-04-28T06:46:36.099Z,11.67
2019-04-28T06:49:05.557Z,11.53
2019-04-28T06:51:34.915Z,8.03
2019-04-28T06:54:04.227Z,7.70
2019-04-28T06:56:33.485Z,8.03
2019-04-28T06:59:02.774Z,11.00
2019-04-28T07:01:32.008Z,6.70
2019-04-28T07:04:01.262Z,8.57
2019-04-28T07:06:30.566Z,7.47
2019-04-28T07:08:59.843Z,10.93
2019-04-28T07:11:29.124Z,7.73
2019-04-28T07:13:58.662Z,11.13
2019-04-28T07:16:27.925Z,13.97
2019-04-28T07:18:57.186Z,8.40
2019-04-28T07:21:37.607Z,6.63
2019-04-28T07:24:06.847Z,8.33
2019-04-28T07:26:36.410Z,6.13
2019-04-28T07:29:05.681Z,7.17
2019-04-28T07:31:34.956Z,7.30
2019-04-28T07:34:04.256Z,8.70
2019-04-28T07:36:33.567Z,4.87
2019-04-28T07:39:02.890Z,6.33
2019-04-28T07:41:32.233Z,4.83
2019-04-28T07:44:01.545Z,5.20
2019-04-28T07:46:30.903Z,6.07
2019-04-28T07:49:00.221Z,7.23
2019-04-28T07:51:37.951Z,5.97
2019-04-28T07:54:10.150Z,4.77
2019-04-28T07:56:39.469Z,6.63
2019-04-28T07:59:08.744Z,7.90
2019-04-28T08:01:38.046Z,5.53
2019-04-28T08:04:07.345Z,6.80
2019-04-28T08:06:36.660Z,6.07
2019-04-28T08:09:08.738Z,6.13
2019-04-28T08:11:38.018Z,8.40
2019-04-28T08:14:07.293Z,6.05
2019-04-28T08:16:36.656Z,6.07
2019-04-28T08:19:05.965Z,5.27
2019-04-28T08:21:35.393Z,4.87
2019-04-28T08:24:04.739Z,7.20
2019-04-28T08:26:36.231Z,6.50
2019-04-28T08:29:05.151Z,8.57
2019-04-28T08:31:43.955Z,3.60
2019-04-28T08:34:13.299Z,4.80
2019-04-28T08:36:42.564Z,7.00
2019-04-28T08:39:12.195Z,5.70
2019-04-28T08:41:41.513Z,6.17
2019-04-28T08:44:10.886Z,5.27
2019-04-28T08:46:40.151Z,4.37
2019-04-28T08:49:09.576Z,6.57
2019-04-28T08:51:38.899Z,5.07
2019-04-28T08:54:08.274Z,4.40
2019-04-28T08:56:37.600Z,4.42
2019-04-28T08:59:06.935Z,6.10
2019-04-28T09:01:36.663Z,5.40
2019-04-28T09:04:15.125Z,3.87
2019-04-28T09:06:37.071Z,4.20
2019-04-28T09:09:09.685Z,3.50
2019-04-28T09:11:39.049Z,3.30
2019-04-28T09:14:08.434Z,3.23
2019-04-28T09:16:37.788Z,5.10
2019-04-28T09:19:07.169Z,3.07
2019-04-28T09:21:36.484Z,3.97
2019-04-28T09:24:05.839Z,4.63
2019-04-28T09:26:37.034Z,4.47
2019-04-28T09:29:06.226Z,5.17
2019-04-28T09:31:35.665Z,5.30
2019-04-28T09:34:05.019Z,7.87
2019-04-28T09:36:34.383Z,4.10
2019-04-28T09:39:05.373Z,4.83
2019-04-28T09:41:36.547Z,4.13
2019-04-28T09:44:15.033Z,2.37
2019-04-28T09:46:44.359Z,5.43
2019-04-28T09:49:13.653Z,4.37
2019-04-28T09:51:43.022Z,3.73
2019-04-28T09:54:12.408Z,5.30
2019-04-28T09:56:41.719Z,3.67
2019-04-28T09:59:11.058Z,3.73
2019-04-28T10:01:40.452Z,4.33
2019-04-28T10:04:09.763Z,3.23
2019-04-28T10:06:39.141Z,2.97
2019-04-28T10:09:08.874Z,3.47
2019-04-28T10:11:38.241Z,2.47
2019-04-28T10:14:07.610Z,1.83
2019-04-28T10:16:36.939Z,2.63
2019-04-28T10:19:07.859Z,5.13
2019-04-28T10:21:37.219Z,2.60
2019-04-28T10:24:06.591Z,3.17
2019-04-28T10:26:35.985Z,2.27
2019-04-28T10:29:05.386Z,2.50
2019-04-28T10:31:34.781Z,2.27
2019-04-28T10:34:05.441Z,2.37
2019-04-28T10:36:36.375Z,2.00
2019-04-28T10:39:36.649Z,3.93
2019-04-28T10:42:06.716Z,1.87
2019-04-28T10:44:39.600Z,2.63
2019-04-28T10:47:09.043Z,2.20
2019-04-28T10:49:38.420Z,2.07
2019-04-28T10:52:07.768Z,1.40
2019-04-28T10:54:37.063Z,3.83
2019-04-28T10:57:06.506Z,2.73
2019-04-28T10:59:35.867Z,1.13
2019-04-28T11:02:05.183Z,1.07
2019-04-28T11:04:45.117Z,1.23
2019-04-28T11:07:15.206Z,1.60
2019-04-28T11:09:49.370Z,1.80
2019-04-28T11:12:22.678Z,1.43
2019-04-28T11:14:52.039Z,2.10
2019-04-28T11:17:22.560Z,2.17
2019-04-28T11:19:52.070Z,3.10
2019-04-28T11:22:21.426Z,2.30
2019-04-28T11:24:50.810Z,2.57
2019-04-28T11:27:20.356Z,1.83
2019-04-28T11:29:49.630Z,3.17
2019-04-28T11:32:18.947Z,2.43
2019-04-28T11:35:21.965Z,1.30
2019-04-28T11:37:47.650Z,1.30
2019-04-28T11:40:16.946Z,3.63
2019-04-28T11:42:46.266Z,2.60
2019-04-28T11:45:15.773Z,1.67
2019-04-28T11:47:45.113Z,1.43
2019-04-28T11:50:14.982Z,1.37
2019-04-28T11:52:44.286Z,3.37
2019-04-28T11:55:13.648Z,3.70
2019-04-28T11:57:42.979Z,2.23
2019-04-28T12:00:25.006Z,2.37
2019-04-28T12:02:54.362Z,3.13
2019-04-28T12:05:34.329Z,4.77
2019-04-28T12:07:56.633Z,3.63
2019-04-28T12:10:29.984Z,2.87
2019-04-28T12:13:21.279Z,2.23
2019-04-28T12:16:12.725Z,2.07
2019-04-28T12:18:47.877Z,6.23
2019-04-28T12:21:17.248Z,2.57
2019-04-28T12:23:46.545Z,1.40
2019-04-28T12:26:15.916Z,1.50
2019-04-28T12:28:45.263Z,2.47
2019-04-28T12:31:14.601Z,1.60
2019-04-28T12:33:43.911Z,2.83
2019-04-28T12:36:13.267Z,2.57
2019-04-28T12:38:42.683Z,2.03
2019-04-28T12:41:12.035Z,2.23
2019-04-28T12:43:41.338Z,2.63
2019-04-28T12:46:10.720Z,3.33
2019-04-28T12:48:40.065Z,2.20
2019-04-28T12:51:09.532Z,2.90
2019-04-28T12:53:38.877Z,1.93
2019-04-28T12:56:08.175Z,2.60
2019-04-28T12:58:37.530Z,2.03
2019-04-28T13:01:17.878Z,1.90
2019-04-28T13:04:06.155Z,2.50
2019-04-28T13:06:35.415Z,1.33
2019-04-28T13:09:06.079Z,2.80
2019-04-28T13:11:35.444Z,2.57
2019-04-28T13:14:04.865Z,1.87
2019-04-28T13:16:34.539Z,1.20
2019-04-28T13:19:03.879Z,2.33
2019-04-28T13:21:33.247Z,1.40
2019-04-28T13:24:02.594Z,1.67
2019-04-28T13:26:31.943Z,2.43
2019-04-28T13:29:01.299Z,2.43
2019-04-28T13:31:30.997Z,3.77
2019-04-28T13:34:01.406Z,1.70
2019-04-28T13:36:30.770Z,2.87
2019-04-28T13:39:01.646Z,2.10
2019-04-28T13:41:31.479Z,1.80
2019-04-28T13:44:02.478Z,1.47
2019-04-28T13:46:31.800Z,2.30
2019-04-28T13:49:02.009Z,1.27
2019-04-28T13:51:31.441Z,1.50
2019-04-28T13:54:02.526Z,1.73
2019-04-28T13:56:31.875Z,1.20
2019-04-28T13:59:06.833Z,2.07
2019-04-28T14:01:49.170Z,1.60
2019-04-28T14:04:40.275Z,1.20
2019-04-28T14:07:09.741Z,1.63
2019-04-28T14:09:39.108Z,1.53
2019-04-28T14:12:08.555Z,1.77
2019-04-28T14:14:37.994Z,1.20
2019-04-28T14:17:07.387Z,2.80
2019-04-28T14:19:36.795Z,0.90
2019-04-28T14:22:06.131Z,0.80
2019-04-28T14:24:35.481Z,0.80
2019-04-28T14:27:04.992Z,0.90
2019-04-28T14:29:35.286Z,0.70
2019-04-28T14:32:04.683Z,0.80
2019-04-28T14:34:34.056Z,0.90
2019-04-28T14:37:04.542Z,0.70
2019-04-28T14:39:33.941Z,0.70
2019-04-28T14:42:03.325Z,0.70
2019-04-28T14:44:33.640Z,0.80
2019-04-28T14:47:03.078Z,0.60
2019-04-28T14:49:32.426Z,1.00
2019-04-28T14:52:01.892Z,1.00
2019-04-28T14:54:31.339Z,0.93
2019-04-28T14:57:00.700Z,0.80
2019-04-28T14:59:30.127Z,0.80
2019-04-28T15:02:13.855Z,1.63
2019-04-28T15:05:06.691Z,1.10
2019-04-28T15:08:04.163Z,1.53
2019-04-28T15:10:52.466Z,0.70
2019-04-28T15:13:22.946Z,0.97
2019-04-28T15:15:52.269Z,1.10
2019-04-28T15:18:21.659Z,0.90
2019-04-28T15:20:51.074Z,1.10
2019-04-28T15:23:20.470Z,1.43
2019-04-28T15:25:51.243Z,1.07
2019-04-28T15:28:20.597Z,1.33
2019-04-28T15:30:49.878Z,1.43
2019-04-28T15:33:19.205Z,1.13
2019-04-28T15:35:48.503Z,0.90
2019-04-28T15:38:17.794Z,0.97
2019-04-28T15:40:47.191Z,0.70
2019-04-28T15:43:16.511Z,1.20
2019-04-28T15:45:45.899Z,1.70
2019-04-28T15:48:15.162Z,1.67
2019-04-28T15:50:44.599Z,1.60
2019-04-28T15:53:13.959Z,1.67
2019-04-28T15:56:07.888Z,3.17
2019-04-28T15:58:37.694Z,2.90
2019-04-28T16:01:07.088Z,1.90
2019-04-28T16:03:36.403Z,1.60
2019-04-28T16:06:06.032Z,1.33
2019-04-28T16:08:35.638Z,1.30
2019-04-28T16:11:05.087Z,1.57
2019-04-28T16:13:34.513Z,1.20
2019-04-28T16:16:04.462Z,0.97
2019-04-28T16:18:33.746Z,0.90
2019-04-28T16:21:03.124Z,2.27
2019-04-28T16:23:32.463Z,0.90
2019-04-28T16:26:01.827Z,0.97
2019-04-28T16:28:31.222Z,1.40
2019-04-28T16:31:00.574Z,1.50
2019-04-28T16:33:29.927Z,1.10
2019-04-28T16:35:59.262Z,1.40
2019-04-28T16:38:28.633Z,2.60
2019-04-28T16:40:58.764Z,1.67
2019-04-28T16:43:31.568Z,2.40
2019-04-28T16:46:00.886Z,1.67
2019-04-28T16:48:30.221Z,2.10
2019-04-28T16:50:59.528Z,1.50
2019-04-28T16:53:28.831Z,1.17
2019-04-28T16:56:15.863Z,1.83
2019-04-28T16:59:15.461Z,1.20
2019-04-28T17:01:52.790Z,1.17
2019-04-28T17:04:22.301Z,1.20
2019-04-28T17:06:51.680Z,1.00
2019-04-28T17:09:21.815Z,1.40
2019-04-28T17:11:51.179Z,1.20
2019-04-28T17:14:20.568Z,1.20
2019-04-28T17:16:49.908Z,4.10
2019-04-28T17:19:19.296Z,5.10
2019-04-28T17:21:48.662Z,1.50
2019-04-28T17:24:18.076Z,2.53
2019-04-28T17:26:47.404Z,1.30
2019-04-28T17:29:16.899Z,1.33
2019-04-28T17:31:46.304Z,4.00
2019-04-28T17:34:15.608Z,3.53
2019-04-28T17:36:45.030Z,1.53
2019-04-28T17:39:18.222Z,5.67
2019-04-28T17:41:47.693Z,6.90
2019-04-28T17:44:17.429Z,9.03
2019-04-28T17:46:46.943Z,2.43
2019-04-28T17:49:16.726Z,1.27
2019-04-28T17:51:46.138Z,0.90
2019-04-28T17:54:15.596Z,1.67
2019-04-28T17:56:45.058Z,3.40
2019-04-28T17:59:14.568Z,3.83
2019-04-28T18:02:02.831Z,2.03
2019-04-28T18:04:42.308Z,1.50
2019-04-28T18:07:15.147Z,1.67
2019-04-28T18:09:44.518Z,1.30
2019-04-28T18:12:13.859Z,1.50
2019-04-28T18:14:45.018Z,1.83
2019-04-28T18:17:33.326Z,1.10
2019-04-28T18:20:02.795Z,1.43
2019-04-28T18:22:32.147Z,1.60
2019-04-28T18:25:01.517Z,1.40
2019-04-28T18:27:30.924Z,1.53
2019-04-28T18:30:00.275Z,2.93
2019-04-28T18:32:47.415Z,1.25
2019-04-28T18:35:35.016Z,1.80
2019-04-28T18:38:11.085Z,2.60
2019-04-28T18:41:01.369Z,1.50
2019-04-28T18:43:52.546Z,1.60
2019-04-28T18:46:26.403Z,1.40
2019-04-28T18:48:55.743Z,1.63
2019-04-28T18:51:25.304Z,1.60
2019-04-28T18:53:54.710Z,1.00
2019-04-28T18:56:24.105Z,1.03
2019-04-28T18:58:53.531Z,1.80
2019-04-28T19:01:39.363Z,1.10
2019-04-28T19:04:08.728Z,1.40
2019-04-28T19:06:38.182Z,1.60
2019-04-28T19:09:30.285Z,1.70
2019-04-28T19:12:21.681Z,27.93
2019-04-28T19:15:12.834Z,33.17
2019-04-28T19:17:48.083Z,6.20
2019-04-28T19:20:17.445Z,10.17
2019-04-28T19:22:47.621Z,11.73
2019-04-28T19:25:16.995Z,4.63
2019-04-28T19:27:46.358Z,4.00
2019-04-28T19:30:15.808Z,4.63
2019-04-28T19:32:45.151Z,2.10
2019-04-28T19:35:14.610Z,1.80
2019-04-28T19:37:44.986Z,2.80
2019-04-28T19:40:14.329Z,2.20
2019-04-28T19:42:43.766Z,2.63
2019-04-28T19:45:15.411Z,2.80
2019-04-28T19:47:44.760Z,2.70
2019-04-28T19:50:13.595Z,2.77
2019-04-28T19:52:42.856Z,2.70
2019-04-28T19:55:24.949Z,2.40
2019-04-28T19:58:11.241Z,3.13
2019-04-28T20:00:44.351Z,3.10
2019-04-28T20:03:13.192Z,3.13
2019-04-28T20:05:41.976Z,2.80
2019-04-28T20:08:11.141Z,4.60
2019-04-28T20:10:40.103Z,4.00
2019-04-28T20:13:08.856Z,3.17
2019-04-28T20:15:37.659Z,3.20
2019-04-28T20:18:06.445Z,3.40
2019-04-28T20:20:35.274Z,4.00
2019-04-28T20:23:04.033Z,3.87
2019-04-28T20:25:32.780Z,2.90
2019-04-28T20:28:01.677Z,3.00
2019-04-28T20:30:30.532Z,2.50
2019-04-28T20:33:06.990Z,3.47
2019-04-28T20:35:32.915Z,3.00
2019-04-28T20:38:16.752Z,2.67
2019-04-28T20:40:54.935Z,2.53
2019-04-28T20:43:23.712Z,2.43
2019-04-28T20:45:52.485Z,3.17
2019-04-28T20:48:21.301Z,2.30
2019-04-28T20:50:50.093Z,2.00
2019-04-28T20:53:19.439Z,2.70
2019-04-28T20:55:48.386Z,2.47
2019-04-28T20:58:17.180Z,3.30
2019-04-28T21:00:45.919Z,3.00
2019-04-28T21:03:14.647Z,3.17
2019-04-28T21:05:43.415Z,2.87
2019-04-28T21:08:12.191Z,2.93
2019-04-28T21:10:41.295Z,2.70
2019-04-28T21:13:10.087Z,2.73
2019-04-28T21:15:38.842Z,3.70
2019-04-28T21:18:07.657Z,3.00
2019-04-28T21:20:36.470Z,3.30
2019-04-28T21:23:05.189Z,4.47
2019-04-28T21:25:33.918Z,2.50
2019-04-28T21:28:02.716Z,2.30
2019-04-28T21:30:31.491Z,2.17
2019-04-28T21:33:00.247Z,2.83
2019-04-28T21:35:28.973Z,3.00
2019-04-28T21:37:57.728Z,2.30
2019-04-28T21:40:27.102Z,2.47
2019-04-28T21:43:18.584Z,1.80
2019-04-28T21:46:06.152Z,2.27
2019-04-28T21:48:42.716Z,2.40
2019-04-28T21:51:12.236Z,2.63
2019-04-28T21:53:41.203Z,2.80
2019-04-28T21:56:09.949Z,2.40
2019-04-28T21:58:38.631Z,2.07
2019-04-28T22:01:08.495Z,2.63
2019-04-28T22:03:37.211Z,1.93
2019-04-28T22:06:06.012Z,2.67
2019-04-28T22:08:34.740Z,2.80
2019-04-28T22:11:03.458Z,4.33
2019-04-28T22:13:32.206Z,2.57
2019-04-28T22:16:00.924Z,2.17
2019-04-28T22:18:29.616Z,2.00
2019-04-28T22:20:58.592Z,2.40
2019-04-28T22:23:36.108Z,2.30
2019-04-28T22:26:04.867Z,2.23
2019-04-28T22:28:33.587Z,3.07
2019-04-28T22:31:02.286Z,2.80
2019-04-28T22:33:31.074Z,2.30
2019-04-28T22:35:59.773Z,1.90
2019-04-28T22:38:28.565Z,1.97
2019-04-28T22:40:57.286Z,2.23
2019-04-28T22:43:26.050Z,2.80
2019-04-28T22:45:54.770Z,2.00
2019-04-28T22:48:24.993Z,2.63
2019-04-28T22:50:54.810Z,2.20
2019-04-28T22:53:28.868Z,4.80
2019-04-28T22:56:05.257Z,1.90
2019-04-28T22:58:45.338Z,2.20
2019-04-28T23:01:31.041Z,3.13
2019-04-28T23:04:27.931Z,2.10
2019-04-28T23:06:56.648Z,2.10
2019-04-28T23:09:25.398Z,2.13
2019-04-28T23:11:54.066Z,1.87
2019-04-28T23:14:22.785Z,1.90
2019-04-28T23:16:51.519Z,2.47
2019-04-28T23:19:21.889Z,2.27
2019-04-28T23:22:06.050Z,2.07
2019-04-28T23:24:34.736Z,4.00
2019-04-28T23:27:03.444Z,2.70
2019-04-28T23:29:32.123Z,1.90
2019-04-28T23:32:00.837Z,2.77
2019-04-28T23:34:29.542Z,2.23
2019-04-28T23:36:58.262Z,2.53
2019-04-28T23:39:26.960Z,1.93
2019-04-28T23:42:17.737Z,2.23
2019-04-28T23:44:46.437Z,2.20
2019-04-28T23:47:15.152Z,2.10
2019-04-28T23:49:43.857Z,5.03
2019-04-28T23:52:20.396Z,2.20
2019-04-28T23:54:50.794Z,2.30
2019-04-28T23:57:19.486Z,2.30
2019-04-28T23:59:48.158Z,1.87
